Time;durP1;ratioP1;P1;durP2;ratioP2;P2;SDS_P1;SDS_P2;PMS_P1;PMS_P2;Temp;Humidity;BMP_temperature;BMP_pressure;BME280_temperature;BME280_humidity;BME280_pressure;Samples;Min_cycle;Max_cycle;Signal;HPM_P1;HPM_P2
2022/01/13 00:01:16;;;;;;;45.13;21.37;;;;;;;-0.98;69.90;102815.47;4995347;28;20190;-83
2022/01/13 00:03:42;;;;;;;44.20;21.37;;;;;;;-0.98;70.00;102817.97;4995255;28;20166;-81
2022/01/13 00:06:07;;;;;;;46.23;23.40;;;;;;;-0.98;69.75;102820.50;4995041;28;20229;-83
2022/01/13 00:08:33;;;;;;;51.60;24.37;;;;;;;-1.02;69.90;102816.53;4994934;28;20212;-82
2022/01/13 00:10:58;;;;;;;52.13;24.97;;;;;;;-1.18;70.36;102789.44;4995078;28;20308;-81
2022/01/13 00:13:31;;;;;;;50.07;24.87;;;;;;;-1.07;70.00;102809.78;4977862;28;20189;-81
2022/01/13 00:16:26;;;;;;;54.10;25.80;;;;;;;-1.46;69.89;102743.56;4995237;28;20201;-82
2022/01/13 00:19:04;;;;;;;57.27;25.20;;;;;;;-1.02;70.11;102833.22;4995993;28;20201;-81
2022/01/13 00:21:37;;;;;;;56.93;25.60;;;;;;;-1.12;69.86;102828.22;4996819;28;20248;-82
2022/01/13 00:24:04;;;;;;;49.77;21.70;;;;;;;-1.11;70.64;102831.66;4996499;28;20615;-82
2022/01/13 00:26:32;;;;;;;44.60;22.87;;;;;;;-1.12;70.31;102830.75;4994966;28;20261;-80
2022/01/13 00:29:01;;;;;;;44.43;19.27;;;;;;;-1.14;70.69;102829.53;4994906;28;20177;-81
2022/01/13 00:31:30;;;;;;;38.77;18.23;;;;;;;-1.28;70.72;102806.13;4995421;28;20178;-81
2022/01/13 00:33:57;;;;;;;34.90;17.60;;;;;;;-1.27;71.06;102825.59;4995035;28;20173;-82
2022/01/13 00:36:25;;;;;;;42.93;20.37;;;;;;;-1.20;71.31;102828.50;4995104;28;20189;-82
2022/01/13 00:38:51;;;;;;;47.20;22.10;;;;;;;-1.21;71.42;102827.56;4994740;28;20615;-82
2022/01/13 00:41:17;;;;;;;61.23;25.77;;;;;;;-1.29;71.38;102807.72;4944650;28;20193;-81
2022/01/13 00:43:46;;;;;;;68.60;30.30;;;;;;;-1.14;71.51;102834.56;4994599;28;20185;-82
2022/01/13 00:46:19;;;;;;;60.60;25.30;;;;;;;-1.21;71.09;102801.50;4994904;28;20178;-82
2022/01/13 00:48:45;;;;;;;61.27;24.93;;;;;;;-2.05;70.67;102648.78;4994655;28;20173;-82
2022/01/13 00:51:12;;;;;;;54.93;26.23;;;;;;;-1.16;71.16;102799.06;4993913;28;20192;-81
2022/01/13 00:53:38;;;;;;;58.43;26.27;;;;;;;-1.07;71.26;102814.81;4976900;28;20581;-83
2022/01/13 00:56:04;;;;;;;53.70;24.00;;;;;;;-1.14;71.03;102803.47;4994484;28;20190;-81
2022/01/13 00:58:33;;;;;;;56.27;24.00;;;;;;;-1.08;70.99;102822.13;4960236;28;20216;-81
2022/01/13 01:01:00;;;;;;;57.70;24.90;;;;;;;-1.05;70.80;102820.13;4976347;28;20190;-82
2022/01/13 01:03:27;;;;;;;64.57;27.03;;;;;;;-1.00;70.28;102827.81;4976565;28;20209;-81
2022/01/13 01:05:54;;;;;;;60.20;26.80;;;;;;;-0.99;70.11;102832.16;4993708;28;20247;-82
2022/01/13 01:08:20;;;;;;;50.63;24.80;;;;;;;-1.26;69.04;102778.03;4993598;28;20192;-81
2022/01/13 01:10:49;;;;;;;40.10;20.20;;;;;;;-0.96;67.92;102827.66;4993367;28;20307;-81
2022/01/13 01:13:21;;;;;;;42.50;18.87;;;;;;;-0.94;68.50;102825.38;4993458;28;20184;-81
2022/01/13 01:15:49;;;;;;;49.73;20.37;;;;;;;-0.92;68.33;102819.03;4994327;28;20205;-81
2022/01/13 01:18:32;;;;;;;37.83;18.07;;;;;;;-1.00;67.68;102816.78;4993375;28;20213;-80
2022/01/13 01:23:44;;;;;;;37.47;16.70;;;;;;;-1.00;66.71;102809.22;4993197;28;20173;-80
2022/01/13 01:26:26;;;;;;;28.27;15.30;;;;;;;-0.89;66.89;102827.09;4993571;28;20161;-80
2022/01/13 01:31:39;;;;;;;24.80;13.83;;;;;;;-1.41;65.54;102738.63;4978322;28;20165;-81
2022/01/13 01:36:37;;;;;;;30.63;15.67;;;;;;;-0.91;67.00;102830.94;4993047;28;20166;-82
2022/01/13 01:39:05;;;;;;;28.57;15.03;;;;;;;-0.84;66.73;102832.91;4992551;28;20281;-81
2022/01/13 01:41:35;;;;;;;32.50;15.70;;;;;;;-1.01;66.53;102779.72;4992822;28;20192;-80
2022/01/13 01:44:09;;;;;;;27.87;15.10;;;;;;;-0.81;66.18;102806.69;4992952;28;20188;-80
2022/01/13 01:46:39;;;;;;;30.67;15.23;;;;;;;-0.80;65.71;102812.63;4992356;28;20224;-82
2022/01/13 01:49:17;;;;;;;38.60;15.83;;;;;;;-0.93;65.40;102789.50;4975597;28;20184;-80
2022/01/13 01:51:46;;;;;;;24.27;13.30;;;;;;;-0.92;65.26;102788.81;4960329;28;20200;-81
2022/01/13 01:54:12;;;;;;;27.33;12.83;;;;;;;-0.71;65.49;102824.25;4991612;28;20660;-82
2022/01/13 01:56:40;;;;;;;24.00;12.67;;;;;;;-0.84;65.01;102797.66;4992615;28;20181;-82
2022/01/13 01:59:11;;;;;;;20.97;11.97;;;;;;;-0.76;64.58;102812.47;4974924;28;20233;-83
2022/01/13 02:01:37;;;;;;;29.37;13.33;;;;;;;-0.75;65.05;102814.31;4992817;28;20219;-82
2022/01/13 02:04:03;;;;;;;26.93;12.80;;;;;;;-0.77;65.02;102805.59;4959441;28;20193;-83
2022/01/13 02:06:29;;;;;;;30.07;14.67;;;;;;;-0.61;64.92;102826.75;4992545;28;20177;-81
2022/01/13 02:08:56;;;;;;;29.43;14.00;;;;;;;-1.04;64.62;102733.91;4992577;28;20560;-81
2022/01/13 02:11:23;;;;;;;23.37;12.70;;;;;;;-0.57;65.01;102821.56;4992166;28;20229;-82
2022/01/13 02:13:52;;;;;;;29.13;12.87;;;;;;;-0.56;64.49;102810.78;4992762;28;20181;-81
2022/01/13 02:18:57;;;;;;;24.30;12.73;;;;;;;-0.59;63.86;102815.31;4992365;28;20204;-81
2022/01/13 02:21:25;;;;;;;25.47;12.87;;;;;;;-0.77;64.40;102790.50;4975007;28;20268;-81
2022/01/13 02:23:51;;;;;;;30.83;13.67;;;;;;;-0.57;64.34;102826.59;4992689;28;20185;-82
2022/01/13 02:26:16;;;;;;;26.90;14.67;;;;;;;-0.59;64.17;102820.34;4996672;28;20177;-81
2022/01/13 02:28:44;;;;;;;28.43;14.00;;;;;;;-0.78;64.33;102786.09;4998098;28;20200;-80
2022/01/13 02:31:10;;;;;;;28.93;13.53;;;;;;;-0.71;64.11;102807.56;5005159;28;20216;-82
2022/01/13 02:33:36;;;;;;;27.77;12.00;;;;;;;-0.58;64.11;102823.16;5007994;28;20212;-81
2022/01/13 02:36:06;;;;;;;26.10;12.90;;;;;;;-0.66;63.56;102836.03;5014156;28;20173;-83
2022/01/13 02:38:32;;;;;;;22.63;11.80;;;;;;;-0.73;63.51;102831.53;5010991;28;20201;-82
2022/01/13 02:40:59;;;;;;;23.10;11.67;;;;;;;-0.82;63.99;102829.06;5011772;28;20184;-81
2022/01/13 02:43:26;;;;;;;34.10;13.87;;;;;;;-1.03;63.90;102798.66;5017755;28;20182;-80
2022/01/13 02:48:52;;;;;;;38.27;14.03;;;;;;;-0.89;64.07;102843.81;4966747;29;20185;-82
2022/01/13 02:51:18;;;;;;;25.90;12.00;;;;;;;-0.96;64.68;102831.75;5004311;28;20196;-80
2022/01/13 02:53:44;;;;;;;28.47;12.30;;;;;;;-1.08;64.93;102830.59;5014430;28;20174;-82
2022/01/13 02:56:09;;;;;;;26.53;13.10;;;;;;;-1.29;65.29;102807.72;5011608;28;20196;-81
2022/01/13 02:58:35;;;;;;;30.77;13.53;;;;;;;-1.19;66.03;102836.28;5014451;28;20220;-82
2022/01/13 03:01:03;;;;;;;33.73;14.50;;;;;;;-1.17;66.01;102829.00;5013607;28;20178;-80
2022/01/13 03:03:30;;;;;;;30.53;13.17;;;;;;;-1.13;66.35;102833.91;5009714;28;20177;-82
2022/01/13 03:05:56;;;;;;;34.10;13.27;;;;;;;-1.17;65.64;102832.44;5006842;28;20260;-80
2022/01/13 03:08:21;;;;;;;28.13;11.83;;;;;;;-1.22;66.32;102827.28;5005967;28;20177;-81
2022/01/13 03:10:47;;;;;;;29.17;13.43;;;;;;;-1.28;66.45;102821.22;5005246;28;20221;-83
2022/01/13 03:13:13;;;;;;;31.93;13.40;;;;;;;-1.33;66.05;102830.50;5004526;28;20237;-82
2022/01/13 03:15:39;;;;;;;28.23;13.27;;;;;;;-1.39;66.88;102837.00;4999219;28;20196;-84
2022/01/13 03:18:04;;;;;;;27.67;13.17;;;;;;;-1.45;67.10;102828.38;4997457;28;20208;-83
2022/01/13 03:20:30;;;;;;;21.60;11.67;;;;;;;-1.58;67.79;102830.38;4996876;28;20188;-83
2022/01/13 03:22:56;;;;;;;27.83;12.80;;;;;;;-1.55;68.00;102828.38;4996223;28;20205;-82
2022/01/13 03:25:23;;;;;;;26.73;12.07;;;;;;;-1.49;67.60;102831.97;4996474;28;20654;-82
2022/01/13 03:27:57;;;;;;;26.67;12.20;;;;;;;-1.55;68.18;102833.41;4995628;28;20180;-82
2022/01/13 03:30:23;;;;;;;22.00;11.97;;;;;;;-1.56;68.07;102828.09;4995722;28;20176;-84
2022/01/13 03:32:48;;;;;;;31.37;12.80;;;;;;;-1.54;68.64;102829.31;4995651;28;20177;-82
2022/01/13 03:35:14;;;;;;;29.83;13.03;;;;;;;-1.66;68.67;102797.94;4995723;28;20196;-82
2022/01/13 03:37:40;;;;;;;26.70;14.07;;;;;;;-1.35;68.45;102838.44;4995810;28;20178;-82
2022/01/13 03:40:06;;;;;;;29.13;13.73;;;;;;;-1.41;68.57;102810.63;4995274;28;20240;-81
2022/01/13 03:42:33;;;;;;;26.53;13.40;;;;;;;-1.17;67.82;102826.50;4995423;28;20178;-84
2022/01/13 03:45:00;;;;;;;35.83;15.23;;;;;;;-1.25;67.87;102807.56;4995067;28;20264;-83
2022/01/13 03:47:26;;;;;;;30.73;13.73;;;;;;;-1.03;68.12;102838.91;4995723;28;20256;-82
2022/01/13 03:49:51;;;;;;;28.03;14.33;;;;;;;-1.06;67.50;102811.66;4977587;28;20678;-82
2022/01/13 03:52:23;;;;;;;28.37;15.70;;;;;;;-0.95;67.94;102833.59;4995203;28;20569;-83
2022/01/13 03:55:25;;;;;;;27.83;14.23;;;;;;;-1.08;68.15;102829.66;4995459;28;20190;-83
2022/01/13 03:58:16;;;;;;;32.93;14.20;;;;;;;-1.21;68.31;102826.66;4995295;28;20728;-83
2022/01/13 04:01:22;;;;;;;26.27;13.20;;;;;;;-1.27;68.72;102835.66;4977759;28;20687;-83
2022/01/13 04:03:47;;;;;;;28.93;14.23;;;;;;;-1.27;69.37;102838.19;4994477;28;20201;-83
2022/01/13 04:06:16;;;;;;;26.23;13.73;;;;;;;-1.26;68.56;102832.47;4995651;28;20260;-82
2022/01/13 04:08:47;;;;;;;26.73;14.10;;;;;;;-1.25;69.15;102831.78;4995422;28;20645;-84
2022/01/13 04:11:15;;;;;;;27.30;13.90;;;;;;;-1.19;68.75;102828.72;4977500;28;20217;-82
2022/01/13 04:14:00;;;;;;;26.70;14.33;;;;;;;-1.11;69.23;102830.06;4995012;28;20189;-83
2022/01/13 04:16:37;;;;;;;28.10;13.43;;;;;;;-1.11;68.60;102842.66;4994283;28;20205;-83
2022/01/13 04:19:07;;;;;;;29.00;14.23;;;;;;;-1.09;68.83;102835.34;4997784;28;20343;-81
2022/01/13 04:21:34;;;;;;;29.30;14.63;;;;;;;-1.16;68.86;102825.81;4999061;28;20183;-80
2022/01/13 04:24:02;;;;;;;28.67;14.63;;;;;;;-1.01;69.03;102850.16;4998182;28;20207;-81
2022/01/13 04:26:29;;;;;;;30.67;14.90;;;;;;;-1.08;68.04;102838.13;4995819;28;20727;-81
2022/01/13 04:29:41;;;;;;;31.97;15.77;;;;;;;-1.08;68.26;102839.72;4995264;28;20322;-82
2022/01/13 04:31:50;;;;;;;26.23;13.30;;;;;;;-1.03;68.38;102849.94;4983716;28;20192;-80
2022/01/13 04:34:18;;;;;;;27.70;14.67;;;;;;;-1.05;68.89;102860.38;4994819;28;20240;-81
2022/01/13 04:36:44;;;;;;;30.83;14.50;;;;;;;-1.00;68.74;102858.00;4994445;28;20213;-82
2022/01/13 04:39:11;;;;;;;30.60;14.23;;;;;;;-1.02;68.74;102858.41;4994328;28;20619;-82
2022/01/13 04:41:39;;;;;;;27.90;15.13;;;;;;;-1.04;69.07;102847.13;4994114;28;20654;-79
2022/01/13 04:44:09;;;;;;;41.37;20.20;;;;;;;-1.16;69.33;102831.78;4995041;28;20208;-84
2022/01/13 04:46:35;;;;;;;44.67;20.43;;;;;;;-1.25;68.90;102836.81;4994536;28;20191;-83
2022/01/13 04:49:01;;;;;;;40.60;17.80;;;;;;;-1.35;70.02;102828.38;4998336;28;20264;-82
2022/01/13 04:51:27;;;;;;;35.90;17.43;;;;;;;-1.27;70.33;102864.25;4996161;28;20177;-81
2022/01/13 04:53:53;;;;;;;31.70;14.93;;;;;;;-1.42;70.79;102867.56;4996574;28;20174;-80
2022/01/13 04:57:20;;;;;;;33.10;16.07;;;;;;;-1.45;71.68;102871.13;4993959;28;20256;-82
2022/01/13 04:59:15;;;;;;;38.13;16.90;;;;;;;-1.48;71.98;102881.59;4972395;28;20783;-83
2022/01/13 05:01:40;;;;;;;36.53;17.50;;;;;;;-1.54;72.53;102867.94;4994699;28;20189;-78
2022/01/13 05:04:07;;;;;;;36.13;16.80;;;;;;;-1.41;72.48;102873.50;4995603;28;20567;-80
2022/01/13 05:06:32;;;;;;;37.13;15.93;;;;;;;-1.48;71.60;102848.88;5001864;28;20177;-80
2022/01/13 05:09:00;;;;;;;31.37;16.70;;;;;;;-1.47;72.43;102872.44;5001483;28;20180;-79
2022/01/13 05:11:26;;;;;;;37.07;17.70;;;;;;;-1.48;72.49;102878.16;4995549;28;20244;-82
2022/01/13 05:13:53;;;;;;;38.90;17.07;;;;;;;-1.53;72.74;102867.28;4993912;28;20560;-79
2022/01/13 05:16:33;;;;;;;29.33;14.83;;;;;;;-1.54;72.90;102874.56;4994091;28;20194;-81
2022/01/13 05:24:14;;;;;;;33.30;16.17;;;;;;;-1.68;74.29;102874.69;4993496;28;20228;-79
2022/01/13 05:26:40;;;;;;;32.57;17.37;;;;;;;-1.63;74.15;102872.31;4975837;28;20180;-79
2022/01/13 05:29:06;;;;;;;30.53;15.90;;;;;;;-1.55;74.29;102876.16;4992727;28;20228;-82
2022/01/13 05:31:32;;;;;;;34.40;17.17;;;;;;;-1.74;74.13;102840.97;4993763;28;20672;-83
2022/01/13 05:33:57;;;;;;;36.00;19.10;;;;;;;-1.43;74.51;102885.84;4995592;28;20184;-84
2022/01/13 05:36:22;;;;;;;36.33;16.53;;;;;;;-1.35;73.94;102877.09;4977940;28;20734;-86
2022/01/13 05:38:49;;;;;;;38.83;18.30;;;;;;;-1.44;75.36;102855.38;4993389;28;20331;-80
2022/01/13 05:41:14;;;;;;;33.70;16.37;;;;;;;-1.12;76.76;102891.13;4993618;28;20276;-82
2022/01/13 05:43:40;;;;;;;35.90;17.00;;;;;;;-1.09;75.55;102898.25;4982246;28;20287;-79
2022/01/13 05:46:05;;;;;;;32.10;15.23;;;;;;;-1.64;76.17;102763.94;5007532;28;20217;-80
2022/01/13 05:48:31;;;;;;;36.33;17.33;;;;;;;-0.84;74.98;102894.28;5007837;28;20197;-79
2022/01/13 05:50:58;;;;;;;35.87;18.57;;;;;;;-0.75;74.54;102888.28;5007647;28;20181;-78
2022/01/13 05:53:23;;;;;;;37.07;18.23;;;;;;;-0.64;76.45;102896.72;5009141;28;20178;-79
2022/01/13 05:55:49;;;;;;;34.57;18.13;;;;;;;-0.60;75.33;102905.06;5007280;28;20182;-79
2022/01/13 05:58:14;;;;;;;38.93;17.67;;;;;;;-0.83;74.37;102862.47;5003789;28;20311;-79
2022/01/13 06:00:40;;;;;;;40.37;18.83;;;;;;;-0.74;74.34;102872.50;5005298;28;20192;-80
2022/01/13 06:03:05;;;;;;;38.73;18.97;;;;;;;-0.81;74.33;102862.06;5003905;28;20173;-82
2022/01/13 06:05:32;;;;;;;29.90;17.03;;;;;;;-0.60;74.85;102901.63;4997521;28;20204;-80
2022/01/13 06:07:58;;;;;;;36.00;15.77;;;;;;;-0.73;75.20;102898.59;4994108;28;20185;-79
2022/01/13 06:10:23;;;;;;;36.37;17.27;;;;;;;-1.10;75.27;102864.63;4976968;28;20240;-81
2022/01/13 06:12:51;;;;;;;35.27;16.77;;;;;;;-0.84;75.36;102916.91;4993779;28;20182;-81
2022/01/13 06:15:19;;;;;;;33.00;17.00;;;;;;;-1.13;76.51;102856.53;5003282;28;20193;-80
2022/01/13 06:17:47;;;;;;;40.93;17.63;;;;;;;-0.81;75.90;102904.88;5002717;28;20200;-79
2022/01/13 06:20:13;;;;;;;36.23;18.57;;;;;;;-0.65;76.78;102917.56;4983961;28;20272;-80
2022/01/13 06:22:40;;;;;;;50.97;23.40;;;;;;;-1.09;75.74;102820.25;5004980;28;20204;-78
2022/01/13 06:25:07;;;;;;;43.27;20.37;;;;;;;-0.65;74.36;102918.47;5015676;28;20213;-78
2022/01/13 06:27:33;;;;;;;46.10;19.50;;;;;;;-0.77;73.76;102926.44;5010552;28;20212;-82
2022/01/13 06:29:59;;;;;;;44.70;20.30;;;;;;;-1.20;74.39;102872.19;4986912;28;20660;-82
2022/01/13 06:32:25;;;;;;;29.67;15.47;;;;;;;-0.95;74.88;102922.63;4993816;28;20568;-83
2022/01/13 06:34:51;;;;;;;41.90;17.73;;;;;;;-0.95;74.57;102941.81;4994469;28;20181;-81
2022/01/13 06:37:17;;;;;;;33.23;17.53;;;;;;;-0.93;75.21;102938.91;4994634;28;20173;-81
2022/01/13 06:39:43;;;;;;;35.77;17.93;;;;;;;-0.93;74.97;102938.00;4995089;28;20284;-82
2022/01/13 06:42:09;;;;;;;35.03;18.23;;;;;;;-1.06;75.51;102926.44;4998704;28;20201;-83
2022/01/13 06:44:35;;;;;;;31.03;16.87;;;;;;;-1.07;75.96;102942.22;5000302;28;20228;-82
2022/01/13 06:47:02;;;;;;;36.83;17.13;;;;;;;-1.28;75.84;102917.72;5000933;28;20262;-83
2022/01/13 06:49:27;;;;;;;36.93;17.17;;;;;;;-1.13;76.73;102944.59;4979691;28;20563;-82
2022/01/13 06:51:53;;;;;;;39.17;19.03;;;;;;;-1.12;77.01;102948.03;4999895;28;20346;-81
2022/01/13 06:54:18;;;;;;;39.63;19.00;;;;;;;-1.06;76.51;102944.06;4999354;28;20180;-82
2022/01/13 06:56:44;;;;;;;44.60;22.77;;;;;;;-1.19;76.43;102934.41;4998473;28;20185;-81
2022/01/13 06:59:11;;;;;;;41.93;21.07;;;;;;;-1.24;77.28;102910.06;4999064;28;20700;-81
2022/01/13 07:01:38;;;;;;;46.20;19.97;;;;;;;-0.97;76.73;102955.72;5000261;28;20178;-80
2022/01/13 07:04:03;;;;;;;36.23;18.87;;;;;;;-0.95;76.10;102946.84;4999650;28;20209;-81
2022/01/13 07:06:29;;;;;;;33.23;18.47;;;;;;;-0.92;76.51;102949.91;4999072;28;20285;-83
2022/01/13 07:08:54;;;;;;;39.87;19.47;;;;;;;-1.47;75.89;102829.69;4999800;28;20185;-80
2022/01/13 07:11:20;;;;;;;45.97;19.67;;;;;;;-0.86;75.34;102953.47;4998145;28;20252;-81
2022/01/13 07:13:45;;;;;;;54.67;24.43;;;;;;;-0.76;75.63;102950.94;4980468;28;20185;-81
2022/01/13 07:16:11;;;;;;;38.37;18.17;;;;;;;-0.73;74.66;102954.91;4998544;28;20193;-81
2022/01/13 07:18:40;;;;;;;41.07;18.53;;;;;;;-0.87;75.20;102926.47;5000004;28;20217;-82
2022/01/13 07:21:08;;;;;;;39.20;19.27;;;;;;;-0.68;75.30;102944.72;4982559;28;20177;-80
2022/01/13 07:23:34;;;;;;;46.53;19.17;;;;;;;-0.74;74.85;102927.91;4997181;28;20181;-80
2022/01/13 07:26:02;;;;;;;47.20;20.33;;;;;;;-0.99;75.26;102896.69;4996181;28;20736;-81
2022/01/13 07:28:29;;;;;;;45.17;20.93;;;;;;;-0.61;74.87;102947.63;4996090;28;20677;-82
2022/01/13 07:30:55;;;;;;;49.20;22.13;;;;;;;-1.22;74.95;102840.78;4996366;28;20899;-82
2022/01/13 07:33:21;;;;;;;48.93;23.77;;;;;;;-0.62;75.09;102950.78;4995929;28;20173;-81
2022/01/13 07:35:46;;;;;;;49.57;23.87;;;;;;;-0.51;75.98;102948.50;4996103;28;20182;-83
2022/01/13 07:38:12;;;;;;;47.00;24.13;;;;;;;-0.40;74.94;102950.34;4996119;28;20193;-81
2022/01/13 07:40:37;;;;;;;40.43;21.40;;;;;;;-0.32;74.43;102952.56;5000118;28;20186;-82
2022/01/13 07:43:03;;;;;;;41.83;20.40;;;;;;;-0.24;74.37;102963.28;4964922;28;20188;-82
2022/01/13 07:45:28;;;;;;;37.43;19.87;;;;;;;-0.16;74.37;102959.53;4997040;28;20259;-83
2022/01/13 07:47:54;;;;;;;33.97;16.33;;;;;;;-0.14;73.52;102958.22;4997184;28;20322;-82
2022/01/13 07:50:19;;;;;;;33.90;16.97;;;;;;;-0.08;74.02;102955.81;4979692;28;20186;-80
2022/01/13 07:52:45;;;;;;;33.20;17.43;;;;;;;-0.08;73.80;102954.22;4995736;28;20189;-81
2022/01/13 07:55:11;;;;;;;41.73;16.80;;;;;;;0.01;73.49;102959.88;4997035;28;20174;-84
2022/01/13 07:57:37;;;;;;;31.53;16.23;;;;;;;-0.06;72.48;102962.03;4978576;28;20213;-81
2022/01/13 08:00:05;;;;;;;35.77;16.73;;;;;;;-0.05;72.93;102968.94;4996810;28;20563;-83
2022/01/13 08:02:30;;;;;;;35.77;18.33;;;;;;;-0.11;72.38;102960.31;4997043;28;20204;-85
2022/01/13 08:04:56;;;;;;;34.00;16.93;;;;;;;-0.10;72.72;102967.22;4978694;28;20657;-81
2022/01/13 08:07:21;;;;;;;36.97;17.53;;;;;;;-0.06;73.24;102967.09;4995937;28;20236;-83
2022/01/13 08:09:47;;;;;;;36.20;17.53;;;;;;;0.01;72.93;102972.50;4996715;28;20173;-81
2022/01/13 08:12:12;;;;;;;35.00;17.20;;;;;;;-0.16;73.45;102961.13;4997111;28;20213;-80
2022/01/13 08:14:38;;;;;;;34.03;16.67;;;;;;;-0.19;73.66;102960.63;4995929;28;20184;-82
2022/01/13 08:17:06;;;;;;;36.57;16.93;;;;;;;-0.19;73.53;102969.09;4995108;28;20534;-82
2022/01/13 08:19:47;;;;;;;33.20;16.00;;;;;;;-0.24;73.97;102969.94;4977294;28;20763;-82
2022/01/13 08:22:16;;;;;;;38.63;17.90;;;;;;;-0.44;75.01;102983.22;4994771;28;20166;-82
2022/01/13 08:24:42;;;;;;;36.23;16.60;;;;;;;-0.57;75.24;102968.53;4995232;28;20233;-83
2022/01/13 08:27:08;;;;;;;36.90;18.13;;;;;;;-0.47;75.81;103004.72;4995033;28;20177;-83
2022/01/13 08:29:35;;;;;;;39.20;17.90;;;;;;;-0.87;76.84;102945.66;4995179;28;20668;-81
2022/01/13 08:32:01;;;;;;;45.80;19.20;;;;;;;-0.61;77.66;102998.91;4995610;28;20785;-82
2022/01/13 08:34:26;;;;;;;44.83;20.57;;;;;;;-0.71;78.43;102986.31;4995247;28;20438;-82
2022/01/13 08:36:52;;;;;;;46.30;19.77;;;;;;;-0.49;78.98;102997.56;4996088;28;20177;-82
2022/01/13 08:39:17;;;;;;;42.37;18.90;;;;;;;-0.43;78.09;102985.09;4995669;28;20708;-81
2022/01/13 08:41:43;;;;;;;40.20;20.20;;;;;;;-0.42;77.82;102962.69;4995695;28;20184;-80
2022/01/13 08:44:10;;;;;;;41.43;20.10;;;;;;;-0.34;77.84;102975.00;4998178;28;20181;-83
2022/01/13 08:46:35;;;;;;;43.93;19.80;;;;;;;-0.36;78.16;102973.78;4999746;28;20603;-81
2022/01/13 08:49:01;;;;;;;46.50;21.67;;;;;;;-0.44;77.46;102953.91;4983450;28;20189;-82
2022/01/13 08:51:27;;;;;;;37.77;18.97;;;;;;;-0.54;77.47;102926.25;4997883;28;20179;-83
2022/01/13 08:53:52;;;;;;;41.47;18.97;;;;;;;-0.28;77.61;102942.34;5007962;28;20170;-81
2022/01/13 08:56:18;;;;;;;43.67;19.13;;;;;;;-0.33;78.30;102949.13;5017566;28;20211;-81
2022/01/13 08:58:45;;;;;;;36.77;19.27;;;;;;;-0.33;78.22;102945.69;4995479;28;20205;-82
2022/01/13 09:01:11;;;;;;;37.40;18.60;;;;;;;-0.37;78.40;102959.38;5011873;28;20185;-80
2022/01/13 09:03:37;;;;;;;42.90;19.33;;;;;;;-0.34;78.21;102959.88;5010180;28;20220;-81
2022/01/13 09:06:03;;;;;;;42.70;20.50;;;;;;;-0.34;78.61;102947.28;5015689;28;20182;-81
2022/01/13 09:08:29;;;;;;;45.17;19.27;;;;;;;-0.38;78.24;102947.41;5018669;28;20182;-84
2022/01/13 09:10:55;;;;;;;40.40;21.10;;;;;;;-0.29;77.96;102945.53;5017057;28;20267;-82
2022/01/13 09:13:20;;;;;;;47.00;21.33;;;;;;;-0.35;78.02;102927.78;5018301;28;20181;-83
2022/01/13 09:15:52;;;;;;;47.83;22.23;;;;;;;-0.32;78.39;102934.94;5012560;28;20189;-82
2022/01/13 09:18:30;;;;;;;49.43;22.13;;;;;;;-0.44;78.31;102908.56;5014272;28;20274;-81
2022/01/13 09:20:57;;;;;;;46.73;22.30;;;;;;;-0.22;78.52;102939.94;5016643;28;20173;-82
2022/01/13 09:23:23;;;;;;;44.87;22.07;;;;;;;-0.60;77.29;102846.22;5018111;28;20185;-82
2022/01/13 09:25:48;;;;;;;51.27;23.63;;;;;;;-0.16;77.97;102916.69;5014884;28;20161;-81
2022/01/13 09:28:14;;;;;;;54.63;23.93;;;;;;;-0.25;76.89;102879.88;5013650;28;20193;-82
2022/01/13 09:30:41;;;;;;;48.87;20.97;;;;;;;-0.03;76.07;102903.00;5004719;28;20185;-81
2022/01/13 09:33:08;;;;;;;35.07;18.30;;;;;;;-0.12;75.73;102876.25;4992887;28;20185;-82
2022/01/13 09:35:34;;;;;;;36.37;17.67;;;;;;;0.01;75.33;102894.34;5004434;28;20184;-81
2022/01/13 09:38:01;;;;;;;35.90;16.60;;;;;;;-0.01;74.40;102878.94;5006901;28;20189;-82
2022/01/13 09:40:27;;;;;;;36.40;18.97;;;;;;;0.19;74.66;102868.78;5002579;28;20174;-79
2022/01/13 09:42:53;;;;;;;38.60;18.60;;;;;;;0.18;73.35;102867.81;5006393;28;20209;-81
2022/01/13 09:45:20;;;;;;;37.50;18.63;;;;;;;-0.12;73.34;102805.69;5004905;28;20173;-82
2022/01/13 09:47:47;;;;;;;29.83;15.93;;;;;;;0.12;73.00;102854.19;5003752;28;20204;-82
2022/01/13 09:50:17;;;;;;;37.80;18.83;;;;;;;-0.08;73.39;102822.22;4997203;28;20181;-80
2022/01/13 09:52:43;;;;;;;44.10;19.60;;;;;;;-0.04;73.32;102830.53;4998121;28;20239;-81
2022/01/13 09:55:11;;;;;;;42.63;20.23;;;;;;;0.13;73.73;102858.59;5001074;28;20185;-84
2022/01/13 09:57:41;;;;;;;37.27;19.03;;;;;;;0.10;73.69;102860.59;4997973;28;20205;-81
2022/01/13 10:00:07;;;;;;;37.87;18.67;;;;;;;-0.04;74.12;102862.38;4982842;28;20280;-81
2022/01/13 10:02:33;;;;;;;45.17;21.43;;;;;;;0.05;74.91;102875.63;4997209;28;20192;-83
2022/01/13 10:04:58;;;;;;;47.77;23.50;;;;;;;-0.04;75.09;102835.59;4996191;28;20185;-82
2022/01/13 10:07:41;;;;;;;44.20;20.93;;;;;;;0.14;73.82;102849.41;4998460;28;20173;-81
2022/01/13 10:10:16;;;;;;;46.10;21.37;;;;;;;0.02;73.86;102819.66;5000161;28;20179;-81
2022/01/13 10:12:44;;;;;;;42.80;19.97;;;;;;;0.44;73.85;102881.34;5000635;28;20200;-80
2022/01/13 10:18:05;;;;;;;36.97;19.00;;;;;;;0.67;72.00;102862.41;5001173;28;20238;-82
2022/01/13 10:20:32;;;;;;;38.30;17.93;;;;;;;0.66;71.75;102850.50;5006876;28;20193;-80
2022/01/13 10:23:10;;;;;;;36.23;18.07;;;;;;;0.51;71.22;102845.44;5007023;28;20216;-81
2022/01/13 10:25:41;;;;;;;40.90;19.33;;;;;;;0.61;71.20;102853.84;5005698;28;20268;-81
2022/01/13 10:28:18;;;;;;;36.53;18.27;;;;;;;0.68;71.64;102852.56;5004743;28;20165;-81
2022/01/13 10:30:46;;;;;;;39.53;18.23;;;;;;;0.65;70.40;102847.03;5002755;28;20169;-81
2022/01/13 10:33:27;;;;;;;30.90;16.87;;;;;;;0.51;70.73;102833.75;5000375;28;20185;-80
2022/01/13 10:36:04;;;;;;;36.33;17.97;;;;;;;0.40;71.22;102829.44;4997232;28;20216;-80
2022/01/13 10:38:52;;;;;;;48.10;18.47;;;;;;;0.47;71.42;102844.00;4976137;28;20216;-82
2022/01/13 10:42:02;;;;;;;39.30;18.67;;;;;;;0.44;71.56;102857.03;4992887;28;20229;-81
2022/01/13 10:44:22;;;;;;;37.63;19.43;;;;;;;0.40;71.40;102852.13;4990183;28;20635;-82
2022/01/13 10:46:55;;;;;;;41.33;20.50;;;;;;;0.19;72.24;102814.22;4999600;28;20173;-81
2022/01/13 10:49:32;;;;;;;42.17;19.50;;;;;;;0.26;72.93;102833.81;4975123;28;20173;-81
2022/01/13 10:52:16;;;;;;;38.17;19.87;;;;;;;0.33;73.04;102843.31;4993049;28;20204;-81
2022/01/13 10:54:43;;;;;;;42.53;19.10;;;;;;;0.20;72.65;102838.75;4994764;28;20181;-80
2022/01/13 10:57:18;;;;;;;33.67;17.23;;;;;;;-0.29;72.80;102736.41;4995421;28;20717;-83
2022/01/13 10:59:44;;;;;;;40.53;20.30;;;;;;;-0.06;73.53;102799.13;4992003;28;20204;-81
2022/01/13 11:02:10;;;;;;;45.40;20.93;;;;;;;0.12;73.93;102836.53;4991868;28;20178;-81
2022/01/13 11:04:36;;;;;;;66.90;28.10;;;;;;;0.17;74.52;102834.81;4974152;28;20593;-81
2022/01/13 11:07:18;;;;;;;53.53;23.47;;;;;;;0.11;74.54;102826.22;4991622;28;20181;-80
2022/01/13 11:10:03;;;;;;;43.63;21.10;;;;;;;0.12;73.86;102818.91;4974541;28;20196;-82
2022/01/13 11:12:32;;;;;;;41.93;19.00;;;;;;;0.00;73.93;102801.75;4991662;28;20669;-81
2022/01/13 11:15:03;;;;;;;39.87;19.80;;;;;;;-0.06;74.05;102803.25;4991673;28;20197;-82
2022/01/13 11:17:29;;;;;;;50.30;22.83;;;;;;;-0.01;73.88;102815.94;4991635;28;20162;-82
2022/01/13 11:19:56;;;;;;;44.80;19.13;;;;;;;0.06;73.26;102815.34;4992017;28;20259;-83
2022/01/13 11:22:22;;;;;;;40.53;20.53;;;;;;;0.04;73.53;102814.19;4992199;28;20688;-82
2022/01/13 11:24:48;;;;;;;42.00;19.30;;;;;;;-0.02;73.66;102801.50;4991662;28;20177;-83
2022/01/13 11:27:17;;;;;;;40.43;17.27;;;;;;;0.01;73.59;102795.13;4995616;28;20177;-84
2022/01/13 11:29:45;;;;;;;38.57;16.63;;;;;;;-0.13;73.80;102788.69;4996364;28;20185;-83
2022/01/13 11:32:11;;;;;;;36.87;17.93;;;;;;;-0.14;73.58;102781.81;4996020;28;20281;-83
2022/01/13 11:34:38;;;;;;;35.80;16.33;;;;;;;-0.10;73.72;102771.56;4994691;28;20614;-82
2022/01/13 11:37:05;;;;;;;42.53;21.20;;;;;;;-0.17;74.41;102776.25;4997394;28;20181;-82